Time;durP1;ratioP1;P1;durP2;ratioP2;P2;SDS_P1;SDS_P2;PMS_P1;PMS_P2;Temp;Humidity;BMP_temperature;BMP_pressure;BME280_temperature;BME280_humidity;BME280_pressure;Samples;Min_cycle;Max_cycle;Signal;HPM_P1;HPM_P2
2022/11/24 00:02:22;;;;;;;4.50;2.43;;;;;;;;;;5072517;28;20290;-45
2022/11/24 00:04:48;;;;;;;5.30;2.00;;;;;;;;;;5072146;28;20619;-45
2022/11/24 00:07:14;;;;;;;5.27;2.60;;;;;;;;;;5072339;28;20426;-44
2022/11/24 00:09:40;;;;;;;4.73;2.73;;;;;;;;;;5072269;28;20533;-43
2022/11/24 00:12:06;;;;;;;4.70;2.43;;;;;;;;;;5072304;28;21071;-44
2022/11/24 00:14:32;;;;;;;5.60;2.10;;;;;;;;;;5072282;28;20202;-44
2022/11/24 00:16:58;;;;;;;3.87;2.03;;;;;;;;;;5071922;28;20501;-44
2022/11/24 00:19:25;;;;;;;6.53;2.50;;;;;;;;;;5072135;28;20521;-44
2022/11/24 00:21:51;;;;;;;4.33;2.37;;;;;;;;;;5071830;28;20438;-44
2022/11/24 00:24:17;;;;;;;4.53;2.67;;;;;;;;;;5072067;28;20445;-44
2022/11/24 00:26:43;;;;;;;4.50;2.30;;;;;;;;;;5072107;28;20210;-45
2022/11/24 00:29:10;;;;;;;5.67;2.40;;;;;;;;;;5071840;28;20278;-45
2022/11/24 00:31:38;;;;;;;7.23;2.67;;;;;;;;;;5072027;28;20446;-45
2022/11/24 00:34:05;;;;;;;4.03;2.30;;;;;;;;;;5071843;28;20484;-45
2022/11/24 00:36:33;;;;;;;5.73;2.20;;;;;;;;;;5071629;28;20195;-45
2022/11/24 00:39:00;;;;;;;6.53;3.17;;;;;;;;;;5071324;28;20457;-44
2022/11/24 00:41:27;;;;;;;5.10;2.17;;;;;;;;;;5071343;28;20583;-44
2022/11/24 00:43:53;;;;;;;4.90;2.40;;;;;;;;;;5071791;28;20275;-44
2022/11/24 00:46:19;;;;;;;7.87;2.80;;;;;;;;;;5071714;28;20477;-45
2022/11/24 00:48:45;;;;;;;5.63;2.50;;;;;;;;;;5071499;28;20211;-44
2022/11/24 00:51:12;;;;;;;3.57;2.20;;;;;;;;;;5071915;28;20453;-44
2022/11/24 00:53:40;;;;;;;4.10;2.03;;;;;;;;;;5071045;28;20200;-45
2022/11/24 00:56:06;;;;;;;4.97;2.80;;;;;;;;;;5071171;28;20195;-44
2022/11/24 00:58:33;;;;;;;8.07;2.80;;;;;;;;;;5071071;28;20440;-45
2022/11/24 01:01:01;;;;;;;4.60;2.53;;;;;;;;;;5071852;28;20204;-45
2022/11/24 01:03:27;;;;;;;5.23;2.30;;;;;;;;;;5071642;28;20974;-44
2022/11/24 01:05:53;;;;;;;6.57;2.70;;;;;;;;;;5075223;28;20227;-45
2022/11/24 01:08:19;;;;;;;5.00;2.50;;;;;;;;;;5075338;28;20215;-46
2022/11/24 01:10:46;;;;;;;4.43;2.37;;;;;;;;;;5077201;28;20819;-45
2022/11/24 01:13:12;;;;;;;5.23;2.73;;;;;;;;;;5077684;28;20203;-46
2022/11/24 01:15:39;;;;;;;5.20;2.50;;;;;;;;;;5078044;28;20191;-44
2022/11/24 01:18:05;;;;;;;2.77;2.23;;;;;;;;;;5077960;28;20430;-45
2022/11/24 01:20:32;;;;;;;5.47;2.60;;;;;;;;;;5078049;28;20206;-45
2022/11/24 01:22:58;;;;;;;3.87;2.83;;;;;;;;;;5078295;28;20256;-44
2022/11/24 01:25:24;;;;;;;5.90;2.50;;;;;;;;;;5078141;28;20473;-45
2022/11/24 01:27:51;;;;;;;4.80;2.10;;;;;;;;;;5078175;28;20283;-45
2022/11/24 01:30:18;;;;;;;5.30;2.50;;;;;;;;;;5078081;28;20199;-44
2022/11/24 01:32:44;;;;;;;3.80;2.43;;;;;;;;;;5077825;28;20713;-44
2022/11/24 01:35:10;;;;;;;4.03;2.53;;;;;;;;;;5077322;28;20529;-45
2022/11/24 01:37:36;;;;;;;4.80;2.53;;;;;;;;;;5076884;28;20206;-45
2022/11/24 01:40:02;;;;;;;8.40;3.03;;;;;;;;;;5077271;28;20282;-45
2022/11/24 01:42:36;;;;;;;4.53;2.60;;;;;;;;;;5078151;28;20425;-45
2022/11/24 01:45:17;;;;;;;6.30;2.90;;;;;;;;;;5077927;28;20575;-44
2022/11/24 01:47:44;;;;;;;5.13;2.67;;;;;;;;;;5077258;28;20650;-45
2022/11/24 01:50:13;;;;;;;12.37;3.00;;;;;;;;;;5077686;28;20239;-44
2022/11/24 01:52:42;;;;;;;5.60;2.90;;;;;;;;;;5077994;28;20207;-45
2022/11/24 01:55:10;;;;;;;7.47;2.77;;;;;;;;;;5077525;28;20445;-44
2022/11/24 01:57:37;;;;;;;7.60;2.70;;;;;;;;;;5077819;28;20440;-45
2022/11/24 02:00:04;;;;;;;5.57;2.80;;;;;;;;;;5077886;28;20294;-44
2022/11/24 02:02:30;;;;;;;7.73;3.60;;;;;;;;;;5077861;28;20257;-44
2022/11/24 02:05:02;;;;;;;13.57;3.10;;;;;;;;;;5077911;28;20238;-44
2022/11/24 02:07:29;;;;;;;6.53;2.80;;;;;;;;;;5077971;28;20441;-44
2022/11/24 02:09:56;;;;;;;7.83;3.00;;;;;;;;;;5077655;28;20955;-44
2022/11/24 02:12:23;;;;;;;8.30;3.00;;;;;;;;;;5077856;28;20855;-44
2022/11/24 02:14:50;;;;;;;6.40;3.20;;;;;;;;;;5077730;28;20437;-44
2022/11/24 02:17:16;;;;;;;6.03;3.20;;;;;;;;;;5073413;28;20438;-44
2022/11/24 02:19:45;;;;;;;7.43;3.40;;;;;;;;;;5073491;28;20441;-44
2022/11/24 02:22:14;;;;;;;9.60;3.33;;;;;;;;;;5074627;28;20206;-45
2022/11/24 02:24:44;;;;;;;8.13;3.10;;;;;;;;;;5073937;28;20210;-45
2022/11/24 02:27:12;;;;;;;9.23;3.50;;;;;;;;;;5074646;28;20253;-44
2022/11/24 02:29:39;;;;;;;10.30;3.87;;;;;;;;;;5074319;28;20242;-44
2022/11/24 02:32:06;;;;;;;8.57;3.77;;;;;;;;;;5074449;28;20426;-44
2022/11/24 02:34:32;;;;;;;7.87;3.10;;;;;;;;;;5074336;28;20434;-44
2022/11/24 02:36:58;;;;;;;7.60;3.47;;;;;;;;;;5074351;28;20230;-44
2022/11/24 02:39:24;;;;;;;11.10;3.80;;;;;;;;;;5074231;28;20195;-46
2022/11/24 02:41:52;;;;;;;11.57;4.03;;;;;;;;;;5074179;28;20253;-44
2022/11/24 02:44:20;;;;;;;11.67;3.63;;;;;;;;;;5074240;28;20218;-44
2022/11/24 02:46:46;;;;;;;7.03;3.90;;;;;;;;;;5073920;28;20523;-44
2022/11/24 02:49:12;;;;;;;7.43;3.30;;;;;;;;;;5073949;28;20239;-44
2022/11/24 02:51:38;;;;;;;11.53;3.60;;;;;;;;;;5073943;28;20538;-44
2022/11/24 02:54:04;;;;;;;12.23;3.90;;;;;;;;;;5073749;28;20257;-45
2022/11/24 02:56:30;;;;;;;10.30;3.60;;;;;;;;;;5073707;28;20275;-45
2022/11/24 02:58:56;;;;;;;12.83;3.97;;;;;;;;;;5073944;28;20634;-45
2022/11/24 03:01:23;;;;;;;11.10;4.47;;;;;;;;;;5073870;28;20231;-45
2022/11/24 03:03:49;;;;;;;14.30;4.80;;;;;;;;;;5073664;28;20321;-45
2022/11/24 03:06:15;;;;;;;12.80;4.83;;;;;;;;;;5073761;28;20310;-45
2022/11/24 03:08:41;;;;;;;13.77;5.20;;;;;;;;;;5073591;28;20306;-45
2022/11/24 03:11:07;;;;;;;10.07;4.77;;;;;;;;;;5073749;28;20204;-45
2022/11/24 03:13:33;;;;;;;9.37;4.20;;;;;;;;;;5073569;28;20206;-45
2022/11/24 03:15:59;;;;;;;10.87;3.67;;;;;;;;;;5073593;28;20223;-45
2022/11/24 03:18:27;;;;;;;17.17;4.60;;;;;;;;;;5073511;28;20230;-45
2022/11/24 03:20:53;;;;;;;15.80;4.70;;;;;;;;;;5073422;28;20631;-45
2022/11/24 03:23:19;;;;;;;13.70;4.67;;;;;;;;;;5073249;28;20286;-45
2022/11/24 03:25:45;;;;;;;10.87;5.37;;;;;;;;;;5073032;28;20227;-46
2022/11/24 03:28:11;;;;;;;12.80;4.30;;;;;;;;;;5072042;28;20249;-45
2022/11/24 03:30:37;;;;;;;16.57;5.03;;;;;;;;;;5073156;28;20203;-44
2022/11/24 03:33:03;;;;;;;10.40;4.47;;;;;;;;;;5073115;28;20294;-43
2022/11/24 03:35:31;;;;;;;13.10;4.37;;;;;;;;;;5073129;28;20200;-44
2022/11/24 03:37:57;;;;;;;15.50;4.80;;;;;;;;;;5072946;28;20204;-44
2022/11/24 03:40:23;;;;;;;10.30;4.63;;;;;;;;;;5072827;28;20199;-44
2022/11/24 03:42:49;;;;;;;11.07;4.50;;;;;;;;;;5072599;28;20308;-44
2022/11/24 03:45:15;;;;;;;15.13;4.67;;;;;;;;;;5072877;28;20220;-44
2022/11/24 03:47:41;;;;;;;12.07;4.47;;;;;;;;;;5072721;28;20196;-44
2022/11/24 03:50:07;;;;;;;12.13;4.40;;;;;;;;;;5072701;28;20245;-44
2022/11/24 03:52:35;;;;;;;9.17;4.20;;;;;;;;;;5072785;28;20227;-44
2022/11/24 03:55:01;;;;;;;11.60;4.33;;;;;;;;;;5072354;28;20295;-43
2022/11/24 03:57:27;;;;;;;14.60;4.93;;;;;;;;;;5072786;28;20282;-43
2022/11/24 03:59:53;;;;;;;14.43;5.17;;;;;;;;;;5072425;28;20721;-44
2022/11/24 04:02:19;;;;;;;16.43;4.97;;;;;;;;;;5072476;28;20199;-43
2022/11/24 04:04:49;;;;;;;12.27;4.43;;;;;;;;;;5072473;28;20195;-44
2022/11/24 04:07:15;;;;;;;15.57;4.50;;;;;;;;;;5072606;28;20245;-44
2022/11/24 04:09:42;;;;;;;11.43;3.90;;;;;;;;;;5072424;28;20223;-44
2022/11/24 04:14:53;;;;;;;11.53;4.27;;;;;;;;;;5072325;28;20194;-43
2022/11/24 04:17:19;;;;;;;18.07;4.40;;;;;;;;;;5072340;28;20286;-45
2022/11/24 04:19:45;;;;;;;12.20;4.47;;;;;;;;;;5072257;28;20272;-45
2022/11/24 04:22:11;;;;;;;18.57;4.57;;;;;;;;;;5072278;28;20223;-45
2022/11/24 04:24:37;;;;;;;13.30;4.60;;;;;;;;;;5072020;28;20618;-45
2022/11/24 04:27:05;;;;;;;13.03;4.03;;;;;;;;;;5072143;28;20226;-45
2022/11/24 04:29:31;;;;;;;17.40;4.50;;;;;;;;;;5071998;28;20246;-45
2022/11/24 04:31:57;;;;;;;11.77;4.17;;;;;;;;;;5071907;28;20689;-45
2022/11/24 04:34:23;;;;;;;11.50;3.87;;;;;;;;;;5072209;28;20195;-44
2022/11/24 04:36:49;;;;;;;15.10;4.40;;;;;;;;;;5071946;28;20187;-43
2022/11/24 04:39:15;;;;;;;12.77;4.73;;;;;;;;;;5071505;28;20206;-44
2022/11/24 04:41:41;;;;;;;15.30;4.63;;;;;;;;;;5071901;28;20199;-44
2022/11/24 04:44:08;;;;;;;16.70;4.50;;;;;;;;;;5071980;28;20199;-44
2022/11/24 04:46:34;;;;;;;16.10;4.77;;;;;;;;;;5072144;28;20254;-44
2022/11/24 04:49:00;;;;;;;12.10;4.37;;;;;;;;;;5071402;28;20238;-44
2022/11/24 04:51:26;;;;;;;13.70;4.17;;;;;;;;;;5071958;28;20203;-44
2022/11/24 04:53:53;;;;;;;14.13;4.63;;;;;;;;;;5071869;28;20574;-44
2022/11/24 04:56:19;;;;;;;19.27;5.53;;;;;;;;;;5072001;28;20251;-44
2022/11/24 04:58:47;;;;;;;16.60;4.37;;;;;;;;;;5071817;28;20208;-44
2022/11/24 05:01:15;;;;;;;16.17;4.33;;;;;;;;;;5072020;28;20551;-44
2022/11/24 05:03:41;;;;;;;18.87;4.37;;;;;;;;;;5071633;28;20208;-44
2022/11/24 05:06:07;;;;;;;15.13;4.20;;;;;;;;;;5071774;28;20584;-44
2022/11/24 05:08:33;;;;;;;14.17;4.17;;;;;;;;;;5071675;28;20490;-44
2022/11/24 05:11:03;;;;;;;11.10;4.00;;;;;;;;;;5071616;28;20441;-44
2022/11/24 05:13:29;;;;;;;16.67;4.40;;;;;;;;;;5071758;28;20670;-44
2022/11/24 05:15:55;;;;;;;15.27;3.83;;;;;;;;;;5071463;28;20438;-44
2022/11/24 05:18:23;;;;;;;19.07;4.23;;;;;;;;;;5071592;28;20202;-44
2022/11/24 05:20:49;;;;;;;16.17;4.30;;;;;;;;;;5071809;28;20504;-44
2022/11/24 05:23:15;;;;;;;17.93;4.33;;;;;;;;;;5071733;28;20196;-44
2022/11/24 05:25:41;;;;;;;17.53;3.93;;;;;;;;;;5071516;28;20231;-44
2022/11/24 05:28:08;;;;;;;15.50;4.07;;;;;;;;;;5071607;28;20437;-44
2022/11/24 05:30:36;;;;;;;14.37;4.40;;;;;;;;;;5071293;28;20511;-44
2022/11/24 05:33:04;;;;;;;16.93;4.50;;;;;;;;;;5070422;28;20434;-44
2022/11/24 05:35:31;;;;;;;16.87;4.67;;;;;;;;;;5069934;28;20638;-44
2022/11/24 05:37:57;;;;;;;14.80;4.13;;;;;;;;;;5070311;28;20537;-44
2022/11/24 05:40:24;;;;;;;13.23;4.10;;;;;;;;;;5071347;28;20444;-44
2022/11/24 05:42:50;;;;;;;12.10;4.13;;;;;;;;;;5071108;28;20440;-44
2022/11/24 05:45:17;;;;;;;12.97;4.63;;;;;;;;;;5071189;28;20474;-44
2022/11/24 05:47:43;;;;;;;13.73;4.03;;;;;;;;;;5071096;28;20487;-44
2022/11/24 05:50:10;;;;;;;14.00;3.97;;;;;;;;;;5070662;28;20603;-44
2022/11/24 05:52:38;;;;;;;11.23;4.23;;;;;;;;;;5073193;28;20437;-44
2022/11/24 05:55:04;;;;;;;16.93;4.07;;;;;;;;;;5074050;28;20199;-44
2022/11/24 05:57:31;;;;;;;16.30;4.67;;;;;;;;;;5075094;28;20433;-46
2022/11/24 05:59:57;;;;;;;13.20;4.40;;;;;;;;;;5074826;28;20451;-45
2022/11/24 06:02:23;;;;;;;13.50;4.10;;;;;;;;;;5074552;28;20522;-46
2022/11/24 06:04:49;;;;;;;12.87;3.90;;;;;;;;;;5074727;28;20210;-45
2022/11/24 06:07:15;;;;;;;11.07;3.50;;;;;;;;;;5074805;28;20203;-46
2022/11/24 06:09:42;;;;;;;10.73;3.97;;;;;;;;;;5074568;28;20481;-43
2022/11/24 06:12:09;;;;;;;12.43;3.93;;;;;;;;;;5074703;28;20430;-46
2022/11/24 06:14:35;;;;;;;16.10;3.87;;;;;;;;;;5074529;28;20191;-44
2022/11/24 06:17:01;;;;;;;15.27;4.13;;;;;;;;;;5073929;28;20456;-46
2022/11/24 06:19:27;;;;;;;17.60;4.33;;;;;;;;;;5074594;28;20460;-45
2022/11/24 06:21:54;;;;;;;12.03;4.23;;;;;;;;;;5074493;28;20441;-45
2022/11/24 06:24:20;;;;;;;17.40;6.20;;;;;;;;;;5074710;28;21210;-44
2022/11/24 06:26:47;;;;;;;17.40;5.73;;;;;;;;;;5074136;28;20473;-45
2022/11/24 06:29:13;;;;;;;18.03;6.97;;;;;;;;;;5074356;28;20445;-46
2022/11/24 06:31:39;;;;;;;21.33;7.37;;;;;;;;;;5073633;28;20434;-44
2022/11/24 06:34:06;;;;;;;23.13;7.37;;;;;;;;;;5074104;28;20187;-44
2022/11/24 06:36:32;;;;;;;21.67;7.83;;;;;;;;;;5074319;28;20199;-45
2022/11/24 06:39:00;;;;;;;21.50;7.43;;;;;;;;;;5074429;28;20216;-44
2022/11/24 06:41:27;;;;;;;21.13;6.97;;;;;;;;;;5074331;28;20442;-44
2022/11/24 06:43:54;;;;;;;14.90;5.60;;;;;;;;;;5074132;28;20199;-45
2022/11/24 06:46:21;;;;;;;14.03;5.40;;;;;;;;;;5073565;28;20222;-45
2022/11/24 06:48:47;;;;;;;17.23;5.43;;;;;;;;;;5073601;28;20260;-45
2022/11/24 06:51:13;;;;;;;16.40;5.50;;;;;;;;;;5073964;28;20207;-44
2022/11/24 06:53:41;;;;;;;17.83;4.80;;;;;;;;;;5074248;28;21010;-44
2022/11/24 06:56:08;;;;;;;14.27;4.33;;;;;;;;;;5073599;28;20422;-44
2022/11/24 06:58:34;;;;;;;14.73;4.43;;;;;;;;;;5073666;28;20195;-45
2022/11/24 07:01:01;;;;;;;13.90;3.83;;;;;;;;;;5073548;28;20434;-44
2022/11/24 07:03:27;;;;;;;10.27;4.17;;;;;;;;;;5072788;28;20261;-44
2022/11/24 07:05:55;;;;;;;13.10;3.67;;;;;;;;;;5072841;28;20219;-44
2022/11/24 07:08:21;;;;;;;11.70;3.67;;;;;;;;;;5072626;28;20209;-44
2022/11/24 07:10:47;;;;;;;12.97;3.83;;;;;;;;;;5073083;28;20638;-45
2022/11/24 07:13:13;;;;;;;7.77;3.40;;;;;;;;;;5073350;28;20292;-44
2022/11/24 07:15:39;;;;;;;14.07;3.73;;;;;;;;;;5072998;28;20192;-45
2022/11/24 07:18:07;;;;;;;14.50;4.63;;;;;;;;;;5071985;28;20195;-44
2022/11/24 07:20:33;;;;;;;10.43;4.37;;;;;;;;;;5072763;28;20206;-45
2022/11/24 07:22:59;;;;;;;18.27;9.17;;;;;;;;;;5073197;28;20195;-45
2022/11/24 07:25:25;;;;;;;32.93;15.70;;;;;;;;;;5073053;28;20552;-44
2022/11/24 07:27:55;;;;;;;26.13;10.43;;;;;;;;;;5073319;28;20491;-44
2022/11/24 07:30:21;;;;;;;13.70;5.63;;;;;;;;;;5073328;28;20461;-44
2022/11/24 07:32:47;;;;;;;16.07;7.17;;;;;;;;;;5072107;28;20885;-43
2022/11/24 07:35:14;;;;;;;13.37;5.23;;;;;;;;;;5072160;28;20214;-43
2022/11/24 07:37:40;;;;;;;11.27;4.03;;;;;;;;;;5072862;28;20993;-45
2022/11/24 07:40:07;;;;;;;11.10;4.00;;;;;;;;;;5072545;28;20837;-43
2022/11/24 07:42:33;;;;;;;10.33;4.83;;;;;;;;;;5072286;28;20594;-44
2022/11/24 07:44:59;;;;;;;10.40;4.60;;;;;;;;;;5071545;28;20243;-43
2022/11/24 07:47:25;;;;;;;9.70;4.87;;;;;;;;;;5071970;28;20279;-45
2022/11/24 07:49:51;;;;;;;15.30;5.03;;;;;;;;;;5072420;28;20314;-44
2022/11/24 07:52:18;;;;;;;15.73;4.40;;;;;;;;;;5072088;28;20780;-44
2022/11/24 07:54:44;;;;;;;10.27;4.13;;;;;;;;;;5072614;28;20196;-44
2022/11/24 07:57:10;;;;;;;12.63;4.73;;;;;;;;;;5072372;28;20204;-44
2022/11/24 07:59:36;;;;;;;11.67;4.17;;;;;;;;;;5072382;28;20697;-44
2022/11/24 08:02:02;;;;;;;8.10;3.93;;;;;;;;;;5072307;28;20206;-44
2022/11/24 08:04:28;;;;;;;9.27;4.20;;;;;;;;;;5072566;28;20273;-44
2022/11/24 08:06:54;;;;;;;12.73;4.13;;;;;;;;;;5071848;28;20629;-44
2022/11/24 08:09:22;;;;;;;16.13;4.80;;;;;;;;;;5071796;28;20718;-44
2022/11/24 08:11:48;;;;;;;17.00;4.70;;;;;;;;;;5072204;28;20303;-43
2022/11/24 08:14:14;;;;;;;13.27;4.20;;;;;;;;;;5072424;28;20195;-44
2022/11/24 08:16:40;;;;;;;9.63;3.60;;;;;;;;;;5072212;28;20202;-44
2022/11/24 08:19:06;;;;;;;14.87;4.47;;;;;;;;;;5071496;28;20660;-44
2022/11/24 08:21:32;;;;;;;14.57;4.80;;;;;;;;;;5072126;28;20235;-44
2022/11/24 08:23:58;;;;;;;11.87;4.17;;;;;;;;;;5072166;28;20235;-45
2022/11/24 08:26:26;;;;;;;15.70;4.27;;;;;;;;;;5071454;28;20230;-44
2022/11/24 08:28:53;;;;;;;13.60;3.90;;;;;;;;;;5072031;28;20282;-44
2022/11/24 08:31:19;;;;;;;14.47;4.17;;;;;;;;;;5071227;28;20199;-44
2022/11/24 08:33:45;;;;;;;11.80;3.87;;;;;;;;;;5072040;28;20245;-44
2022/11/24 08:36:12;;;;;;;11.70;3.70;;;;;;;;;;5071906;28;20249;-44
2022/11/24 08:38:38;;;;;;;10.40;3.53;;;;;;;;;;5071921;28;20242;-45
2022/11/24 08:41:06;;;;;;;12.30;4.23;;;;;;;;;;5071769;28;20187;-44
2022/11/24 08:43:33;;;;;;;11.47;3.40;;;;;;;;;;5071728;28;20657;-44
2022/11/24 08:46:00;;;;;;;17.17;3.80;;;;;;;;;;5071488;28;20223;-45
2022/11/24 08:48:26;;;;;;;13.17;3.67;;;;;;;;;;5071879;28;20199;-44
2022/11/24 08:50:52;;;;;;;10.57;3.80;;;;;;;;;;5071474;28;20569;-45
2022/11/24 08:53:18;;;;;;;8.83;3.13;;;;;;;;;;5071843;28;20191;-45
2022/11/24 08:55:44;;;;;;;11.27;3.07;;;;;;;;;;5071688;28;20253;-45
2022/11/24 08:58:10;;;;;;;11.03;3.33;;;;;;;;;;5070724;28;20731;-45
2022/11/24 09:00:38;;;;;;;9.27;3.60;;;;;;;;;;5071350;28;20662;-45
2022/11/24 09:03:04;;;;;;;10.60;4.07;;;;;;;;;;5071518;28;20918;-45
2022/11/24 09:05:30;;;;;;;11.23;3.40;;;;;;;;;;5071635;28;20254;-45
2022/11/24 09:07:55;;;;;;;13.37;4.90;;;;;;;;;;5071540;28;20222;-45
2022/11/24 09:10:22;;;;;;;14.90;4.03;;;;;;;;;;5071649;28;20278;-45
2022/11/24 09:12:50;;;;;;;14.93;4.50;;;;;;;;;;5072314;28;20217;-45
2022/11/24 09:15:17;;;;;;;15.50;5.30;;;;;;;;;;5071715;28;20324;-45
2022/11/24 09:17:45;;;;;;;14.63;5.30;;;;;;;;;;5071254;28;20205;-43
2022/11/24 09:20:11;;;;;;;12.30;4.20;;;;;;;;;;5070916;28;20200;-45
2022/11/24 09:22:38;;;;;;;14.97;4.77;;;;;;;;;;5071266;28;20210;-45
2022/11/24 09:25:05;;;;;;;16.60;5.07;;;;;;;;;;5071784;28;20243;-45
2022/11/24 09:27:31;;;;;;;15.83;4.70;;;;;;;;;;5075380;28;20207;-44
2022/11/24 09:29:57;;;;;;;10.63;3.77;;;;;;;;;;5075435;28;20207;-44
2022/11/24 09:32:23;;;;;;;9.13;3.53;;;;;;;;;;5075227;28;20202;-44
2022/11/24 09:34:51;;;;;;;8.20;3.17;;;;;;;;;;5074422;28;20195;-45
2022/11/24 09:37:17;;;;;;;13.50;3.83;;;;;;;;;;5074671;28;20420;-45
2022/11/24 09:39:43;;;;;;;12.03;3.40;;;;;;;;;;5074964;28;20245;-45
2022/11/24 09:42:13;;;;;;;9.37;3.40;;;;;;;;;;5074686;28;20191;-45
2022/11/24 09:44:48;;;;;;;9.87;3.67;;;;;;;;;;5075188;28;20203;-45
2022/11/24 09:47:18;;;;;;;9.17;3.50;;;;;;;;;;5074010;28;20711;-45
2022/11/24 09:49:48;;;;;;;10.50;3.60;;;;;;;;;;5074863;28;20235;-45
2022/11/24 09:52:21;;;;;;;10.20;3.70;;;;;;;;;;5074793;28;20204;-45
2022/11/24 09:54:50;;;;;;;8.90;3.10;;;;;;;;;;5073836;28;20210;-45
2022/11/24 09:57:17;;;;;;;11.97;3.30;;;;;;;;;;5073927;28;20685;-47
2022/11/24 09:59:43;;;;;;;12.50;3.93;;;;;;;;;;5074780;28;20664;-45
2022/11/24 10:02:12;;;;;;;10.13;3.80;;;;;;;;;;5073368;28;20282;-45
2022/11/24 10:04:40;;;;;;;12.13;3.90;;;;;;;;;;5073704;28;20736;-44
2022/11/24 10:07:09;;;;;;;11.63;3.93;;;;;;;;;;5074635;28;20509;-46
2022/11/24 10:09:50;;;;;;;10.33;4.10;;;;;;;;;;5074426;28;20230;-45
2022/11/24 10:12:22;;;;;;;8.07;3.87;;;;;;;;;;5072731;28;20229;-45
2022/11/24 10:14:56;;;;;;;10.57;3.20;;;;;;;;;;5073881;28;20202;-45
2022/11/24 10:17:31;;;;;;;9.30;3.27;;;;;;;;;;5074395;28;20534;-44
2022/11/24 10:20:02;;;;;;;11.30;3.53;;;;;;;;;;5074344;28;20195;-44
2022/11/24 10:22:31;;;;;;;11.10;3.53;;;;;;;;;;5073671;28;20266;-44
2022/11/24 10:25:09;;;;;;;10.10;3.43;;;;;;;;;;5074339;28;20201;-45
2022/11/24 10:27:38;;;;;;;11.90;3.57;;;;;;;;;;5074249;28;20377;-45
2022/11/24 10:30:11;;;;;;;10.07;3.60;;;;;;;;;;5074331;28;20231;-45
2022/11/24 10:32:40;;;;;;;8.50;3.53;;;;;;;;;;5074250;28;20609;-45
2022/11/24 10:35:13;;;;;;;16.67;4.60;;;;;;;;;;5074182;28;20666;-45
2022/11/24 10:37:42;;;;;;;12.70;3.90;;;;;;;;;;5072234;28;20720;-45
2022/11/24 10:40:12;;;;;;;12.77;3.73;;;;;;;;;;5073216;28;20195;-44
2022/11/24 10:42:39;;;;;;;12.77;3.93;;;;;;;;;;5074035;28;20196;-44
2022/11/24 10:45:10;;;;;;;12.30;4.10;;;;;;;;;;5073495;28;20253;-44
2022/11/24 10:47:36;;;;;;;15.67;5.17;;;;;;;;;;5074021;28;20199;-45
2022/11/24 10:50:03;;;;;;;12.23;4.10;;;;;;;;;;5073676;28;20265;-44
2022/11/24 10:52:31;;;;;;;9.40;4.30;;;;;;;;;;5073907;28;20199;-46
2022/11/24 10:54:58;;;;;;;10.20;3.87;;;;;;;;;;5073702;28;20210;-45
2022/11/24 10:57:28;;;;;;;9.50;3.57;;;;;;;;;;5073456;28;20194;-45
2022/11/24 10:59:55;;;;;;;12.17;4.50;;;;;;;;;;5073403;28;20343;-45
2022/11/24 11:02:35;;;;;;;14.40;4.07;;;;;;;;;;5073217;28;20238;-45
2022/11/24 11:05:20;;;;;;;10.37;3.50;;;;;;;;;;5072291;28;20210;-45
2022/11/24 11:07:46;;;;;;;10.90;4.03;;;;;;;;;;5073654;28;20238;-45
2022/11/24 11:10:19;;;;;;;12.93;4.10;;;;;;;;;;5073088;28;20256;-45
2022/11/24 11:12:47;;;;;;;10.93;4.27;;;;;;;;;;5073682;28;20208;-45
2022/11/24 11:15:23;;;;;;;10.43;3.50;;;;;;;;;;5072503;28;20231;-44
2022/11/24 11:17:53;;;;;;;11.70;3.60;;;;;;;;;;5073183;28;20199;-44
2022/11/24 11:20:22;;;;;;;11.60;4.10;;;;;;;;;;5073301;28;20200;-46
2022/11/24 11:22:49;;;;;;;11.90;4.50;;;;;;;;;;5073163;28;20672;-44
2022/11/24 11:25:20;;;;;;;11.83;3.97;;;;;;;;;;5073213;28;20222;-46
2022/11/24 11:27:48;;;;;;;11.87;3.73;;;;;;;;;;5073020;28;20241;-45
2022/11/24 11:30:19;;;;;;;8.87;3.60;;;;;;;;;;5072690;28;20564;-45
2022/11/24 11:32:52;;;;;;;9.73;4.03;;;;;;;;;;5073278;28;20253;-45
2022/11/24 11:35:18;;;;;;;10.93;4.00;;;;;;;;;;5072404;28;20674;-45
2022/11/24 11:37:44;;;;;;;11.80;3.83;;;;;;;;;;5072639;28;20619;-45
2022/11/24 11:40:12;;;;;;;10.90;3.97;;;;;;;;;;5072944;28;20275;-44
2022/11/24 11:42:43;;;;;;;9.70;3.40;;;;;;;;;;5073427;28;20207;-44
2022/11/24 11:45:14;;;;;;;12.27;4.27;;;;;;;;;;5072440;28;20614;-45
2022/11/24 11:47:42;;;;;;;7.97;4.17;;;;;;;;;;5072755;28;20278;-45
2022/11/24 11:50:11;;;;;;;12.93;4.13;;;;;;;;;;5072516;28;20326;-45
2022/11/24 11:52:51;;;;;;;6.20;3.23;;;;;;;;;;5072671;28;20230;-44
2022/11/24 11:55:24;;;;;;;6.40;3.47;;;;;;;;;;5072764;28;20270;-45
2022/11/24 11:57:54;;;;;;;7.10;3.43;;;;;;;;;;5072555;28;20244;-44
2022/11/24 12:00:22;;;;;;;9.10;4.00;;;;;;;;;;5072020;28;20191;-43
2022/11/24 12:03:12;;;;;;;11.50;3.60;;;;;;;;;;5064224;28;20212;-44
2022/11/24 12:05:43;;;;;;;6.30;3.17;;;;;;;;;;5071693;28;20615;-44
2022/11/24 12:08:18;;;;;;;7.17;3.30;;;;;;;;;;5071964;28;20241;-43
2022/11/24 12:10:45;;;;;;;7.97;2.70;;;;;;;;;;5053986;28;20218;-43
2022/11/24 12:13:26;;;;;;;6.87;3.10;;;;;;;;;;5052143;28;20202;-44
2022/11/24 12:15:54;;;;;;;8.23;2.90;;;;;;;;;;5065604;28;20245;-44
2022/11/24 12:18:25;;;;;;;6.53;2.60;;;;;;;;;;5072018;28;20195;-44
2022/11/24 12:20:54;;;;;;;6.43;2.63;;;;;;;;;;5071836;28;20573;-44
2022/11/24 12:23:27;;;;;;;5.50;2.80;;;;;;;;;;5072079;28;20243;-44
2022/11/24 12:25:57;;;;;;;8.93;3.20;;;;;;;;;;5071354;28;20273;-44
2022/11/24 12:28:30;;;;;;;3.57;2.70;;;;;;;;;;5072188;28;20249;-44
2022/11/24 12:31:04;;;;;;;5.17;2.60;;;;;;;;;;5071557;28;20191;-44
2022/11/24 12:33:37;;;;;;;6.30;2.70;;;;;;;;;;5071914;28;20203;-43
2022/11/24 12:36:09;;;;;;;6.00;3.37;;;;;;;;;;5071452;28;20199;-43
2022/11/24 12:38:43;;;;;;;7.53;2.90;;;;;;;;;;5069485;28;20638;-44
2022/11/24 12:41:17;;;;;;;6.10;3.27;;;;;;;;;;5071202;28;20212;-45
2022/11/24 12:43:47;;;;;;;5.53;2.73;;;;;;;;;;5070968;28;20625;-44
2022/11/24 12:46:17;;;;;;;4.57;2.70;;;;;;;;;;5071115;28;20732;-43
2022/11/24 12:48:48;;;;;;;6.27;2.80;;;;;;;;;;5071439;28;20836;-44
2022/11/24 12:51:17;;;;;;;4.53;2.73;;;;;;;;;;5071642;28;20234;-43
2022/11/24 12:53:44;;;;;;;4.43;3.07;;;;;;;;;;5071504;28;20257;-44
2022/11/24 12:56:11;;;;;;;6.07;3.17;;;;;;;;;;5070185;28;20222;-44
2022/11/24 12:58:39;;;;;;;6.30;2.80;;;;;;;;;;5071934;28;20195;-44
2022/11/24 13:01:09;;;;;;;6.27;3.00;;;;;;;;;;5071545;28;20627;-44
2022/11/24 13:03:41;;;;;;;6.00;3.90;;;;;;;;;;5071893;28;20191;-44
2022/11/24 13:06:10;;;;;;;4.83;3.27;;;;;;;;;;5071882;28;20277;-44
2022/11/24 13:08:37;;;;;;;7.80;3.60;;;;;;;;;;5071929;28;20215;-44
2022/11/24 13:11:22;;;;;;;7.20;3.77;;;;;;;;;;5072128;28;20298;-44
2022/11/24 13:13:58;;;;;;;6.63;3.40;;;;;;;;;;5072185;28;20188;-44
2022/11/24 13:16:25;;;;;;;5.17;3.40;;;;;;;;;;5071978;28;20218;-43
2022/11/24 13:18:55;;;;;;;7.30;3.67;;;;;;;;;;5071726;28;20206;-43
2022/11/24 13:21:32;;;;;;;5.30;3.27;;;;;;;;;;5072121;28;20207;-43
2022/11/24 13:23:58;;;;;;;8.17;3.70;;;;;;;;;;5071795;28;20195;-43
2022/11/24 13:26:28;;;;;;;9.07;3.90;;;;;;;;;;5071721;28;20251;-43
2022/11/24 13:29:00;;;;;;;6.70;3.60;;;;;;;;;;5071708;28;20190;-43
2022/11/24 13:31:26;;;;;;;6.53;4.17;;;;;;;;;;5071898;28;20670;-43
2022/11/24 13:33:53;;;;;;;5.20;3.97;;;;;;;;;;5071770;28;20644;-43
2022/11/24 13:36:34;;;;;;;7.10;4.27;;;;;;;;;;5071950;28;20196;-44
2022/11/24 13:39:01;;;;;;;5.67;4.20;;;;;;;;;;5071258;28;20195;-43
2022/11/24 13:41:51;;;;;;;5.93;4.03;;;;;;;;;;5071612;28;20610;-44
2022/11/24 13:44:23;;;;;;;8.13;4.40;;;;;;;;;;5056434;28;20210;-44
2022/11/24 13:46:55;;;;;;;9.47;4.73;;;;;;;;;;5071557;28;20578;-44
2022/11/24 13:49:23;;;;;;;9.37;4.93;;;;;;;;;;5071728;28;20292;-44
2022/11/24 13:51:51;;;;;;;8.53;4.97;;;;;;;;;;5071419;28;20235;-44
2022/11/24 13:54:18;;;;;;;5.93;4.07;;;;;;;;;;5071721;28;20204;-44
2022/11/24 13:56:44;;;;;;;8.47;4.70;;;;;;;;;;5071624;28;20218;-45
2022/11/24 13:59:15;;;;;;;7.53;4.50;;;;;;;;;;5071547;28;20200;-46
2022/11/24 14:01:43;;;;;;;8.63;4.93;;;;;;;;;;5071652;28;20195;-44
2022/11/24 14:04:16;;;;;;;6.03;4.40;;;;;;;;;;5071193;28;20218;-45
2022/11/24 14:06:46;;;;;;;6.63;4.13;;;;;;;;;;5067885;28;20281;-45
2022/11/24 14:09:21;;;;;;;6.80;4.33;;;;;;;;;;5072198;28;20227;-45
2022/11/24 14:11:54;;;;;;;8.43;4.53;;;;;;;;;;5071567;28;20199;-45
2022/11/24 14:14:20;;;;;;;6.57;4.43;;;;;;;;;;5075199;28;20650;-44
2022/11/24 14:16:46;;;;;;;6.50;4.10;;;;;;;;;;5075230;28;20196;-44
2022/11/24 14:19:18;;;;;;;6.17;3.83;;;;;;;;;;5068259;28;20218;-45
2022/11/24 14:21:45;;;;;;;6.27;4.10;;;;;;;;;;5055375;28;20274;-44
2022/11/24 14:24:19;;;;;;;6.23;4.00;;;;;;;;;;5055222;28;20693;-44
2022/11/24 14:26:45;;;;;;;5.77;3.90;;;;;;;;;;5055305;28;20261;-45
2022/11/24 14:29:13;;;;;;;7.20;4.53;;;;;;;;;;5055128;28;20204;-45
2022/11/24 14:31:39;;;;;;;6.43;3.80;;;;;;;;;;5073928;28;20692;-44
2022/11/24 14:34:13;;;;;;;6.23;4.20;;;;;;;;;;5075087;28;20245;-44
2022/11/24 14:36:40;;;;;;;7.03;4.27;;;;;;;;;;5075162;28;20200;-44
2022/11/24 14:39:10;;;;;;;7.00;4.20;;;;;;;;;;5074900;28;20199;-43
2022/11/24 14:41:36;;;;;;;6.53;3.77;;;;;;;;;;5075208;28;20203;-45
2022/11/24 14:44:04;;;;;;;6.20;3.90;;;;;;;;;;5074496;28;20230;-45